createdAt,value
2019-01-13T00:00:11.599Z,18.00
2019-01-13T00:01:06.528Z,17.60
2019-01-13T00:02:06.485Z,17.40
2019-01-13T00:03:06.454Z,17.60
2019-01-13T00:04:06.421Z,17.50
2019-01-13T00:05:06.345Z,17.00
2019-01-13T00:06:06.293Z,16.40
2019-01-13T00:07:06.270Z,16.90
2019-01-13T00:08:06.232Z,17.90
2019-01-13T00:09:06.189Z,17.00
2019-01-13T00:10:06.147Z,17.40
2019-01-13T00:11:06.098Z,16.20
2019-01-13T00:12:06.084Z,17.10
2019-01-13T00:13:05.999Z,17.30
2019-01-13T00:14:05.965Z,16.60
2019-01-13T00:15:05.920Z,17.30
2019-01-13T00:16:05.873Z,17.70
2019-01-13T00:17:05.850Z,17.00
2019-01-13T00:18:05.781Z,17.20
2019-01-13T00:19:05.761Z,16.90
2019-01-13T00:20:05.702Z,17.20
2019-01-13T00:21:05.662Z,17.20
2019-01-13T00:22:05.614Z,17.20
2019-01-13T00:23:05.618Z,16.40
2019-01-13T00:24:05.525Z,17.20
2019-01-13T00:25:05.499Z,17.30
2019-01-13T00:26:05.446Z,17.20
2019-01-13T00:27:05.395Z,17.20
2019-01-13T00:28:05.352Z,16.50
2019-01-13T00:29:05.323Z,17.00
2019-01-13T00:30:05.276Z,17.40
2019-01-13T00:31:05.203Z,17.30
2019-01-13T00:32:05.194Z,17.40
2019-01-13T00:33:05.132Z,17.50
2019-01-13T00:34:05.117Z,17.20
2019-01-13T00:35:05.043Z,17.20
2019-01-13T00:36:04.997Z,17.90
2019-01-13T00:37:05.003Z,17.40
2019-01-13T00:38:04.920Z,16.90
2019-01-13T00:39:04.869Z,17.10
2019-01-13T00:40:04.836Z,17.70
2019-01-13T00:41:04.798Z,18.10
2019-01-13T00:42:04.766Z,17.60
2019-01-13T00:43:04.715Z,18.30
2019-01-13T00:44:04.677Z,17.70
2019-01-13T00:45:04.614Z,17.80
2019-01-13T00:46:04.582Z,18.10
2019-01-13T00:47:04.515Z,18.90
2019-01-13T00:48:04.502Z,17.90
2019-01-13T00:49:04.474Z,17.60
2019-01-13T00:50:04.416Z,18.30
2019-01-13T00:51:04.360Z,18.20
2019-01-13T00:52:04.303Z,17.60
2019-01-13T00:53:04.301Z,17.60
2019-01-13T00:54:04.219Z,17.90
2019-01-13T00:55:04.211Z,18.70
2019-01-13T00:56:04.146Z,18.20
2019-01-13T00:57:04.092Z,18.40
2019-01-13T00:58:04.044Z,19.10
2019-01-13T00:59:04.006Z,18.60
2019-01-13T01:00:03.993Z,18.40
2019-01-13T01:01:03.906Z,19.00
2019-01-13T01:02:03.883Z,18.00
2019-01-13T01:03:03.820Z,18.30
2019-01-13T01:04:03.774Z,18.80
2019-01-13T01:05:03.747Z,18.40
2019-01-13T01:06:03.729Z,19.10
2019-01-13T01:07:03.647Z,18.70
2019-01-13T01:08:03.617Z,19.60
2019-01-13T01:09:03.562Z,18.80
2019-01-13T01:10:03.531Z,18.40
2019-01-13T01:11:03.509Z,18.80
2019-01-13T01:12:03.434Z,19.00
2019-01-13T01:13:03.399Z,19.20
2019-01-13T01:14:03.364Z,19.70
2019-01-13T01:15:03.320Z,19.50
2019-01-13T01:16:03.263Z,19.70
2019-01-13T01:17:03.247Z,19.50
2019-01-13T01:18:03.184Z,19.60
2019-01-13T01:19:03.145Z,19.80
2019-01-13T01:20:03.093Z,19.80
2019-01-13T01:21:03.077Z,20.40
2019-01-13T01:22:03.018Z,19.90
2019-01-13T01:23:02.968Z,19.30
2019-01-13T01:24:02.928Z,19.50
2019-01-13T01:25:02.884Z,18.60
2019-01-13T01:26:02.843Z,18.60
2019-01-13T01:27:02.807Z,19.60
2019-01-13T01:28:02.762Z,19.30
2019-01-13T01:29:02.705Z,19.20
2019-01-13T01:30:02.669Z,20.20
2019-01-13T01:31:02.627Z,20.70
2019-01-13T01:32:02.601Z,18.80
2019-01-13T01:33:02.518Z,19.20
2019-01-13T01:34:02.482Z,19.10
2019-01-13T01:35:02.440Z,19.40
2019-01-13T01:36:02.393Z,19.10
2019-01-13T01:37:02.366Z,19.20
2019-01-13T01:38:02.361Z,18.70
2019-01-13T01:39:02.269Z,19.40
2019-01-13T01:40:02.236Z,19.00
2019-01-13T01:41:02.185Z,18.90
2019-01-13T01:42:02.210Z,18.90
2019-01-13T01:43:02.129Z,19.40
2019-01-13T01:44:02.050Z,19.50
2019-01-13T01:45:02.022Z,19.50
2019-01-13T01:46:01.962Z,20.10
2019-01-13T01:47:01.960Z,20.50
2019-01-13T01:48:01.889Z,20.50
2019-01-13T01:49:01.827Z,20.60
2019-01-13T01:50:01.794Z,19.70
2019-01-13T01:51:01.742Z,20.30
2019-01-13T01:52:01.738Z,20.40
2019-01-13T01:53:02.026Z,20.30
2019-01-13T01:54:01.616Z,21.70
2019-01-13T01:55:01.584Z,20.50
2019-01-13T01:56:01.546Z,21.10
2019-01-13T01:57:01.493Z,20.80
2019-01-13T01:58:01.480Z,20.90
2019-01-13T01:59:01.414Z,21.00
2019-01-13T02:00:01.378Z,21.90
2019-01-13T02:01:01.311Z,23.00
2019-01-13T02:02:01.297Z,22.30
2019-01-13T02:03:01.261Z,22.80
2019-01-13T02:04:01.215Z,22.80
2019-01-13T02:05:01.165Z,23.20
2019-01-13T02:06:01.101Z,22.90
2019-01-13T02:07:01.068Z,23.30
2019-01-13T02:08:01.002Z,23.40
2019-01-13T02:09:01.002Z,23.30
2019-01-13T02:10:00.963Z,24.70
2019-01-13T02:11:00.894Z,23.40
2019-01-13T02:12:00.860Z,23.40
2019-01-13T02:13:00.790Z,23.20
2019-01-13T02:14:00.761Z,23.90
2019-01-13T02:15:00.747Z,23.70
2019-01-13T02:16:00.670Z,24.30
2019-01-13T02:17:00.624Z,24.30
2019-01-13T02:18:00.603Z,24.30
2019-01-13T02:19:00.526Z,24.70
2019-01-13T02:20:00.512Z,24.50
2019-01-13T02:21:00.489Z,25.50
2019-01-13T02:22:00.417Z,25.20
2019-01-13T02:23:00.371Z,26.80
2019-01-13T02:24:00.337Z,26.00
2019-01-13T02:25:00.304Z,25.80
2019-01-13T02:26:00.242Z,25.60
2019-01-13T02:27:00.221Z,25.60
2019-01-13T02:28:00.169Z,25.60
2019-01-13T02:29:00.109Z,25.80
2019-01-13T02:30:00.193Z,26.60
2019-01-13T02:31:00.070Z,25.40
2019-01-13T02:31:59.967Z,26.50
2019-01-13T02:32:59.939Z,27.20
2019-01-13T02:33:59.881Z,26.60
2019-01-13T02:34:59.838Z,27.20
2019-01-13T02:35:59.832Z,27.00
2019-01-13T02:36:59.825Z,28.00
2019-01-13T02:37:59.734Z,28.30
2019-01-13T02:38:59.677Z,27.30
2019-01-13T02:39:59.617Z,29.40
2019-01-13T02:40:59.600Z,28.70
2019-01-13T02:41:59.533Z,28.50
2019-01-13T02:42:59.528Z,29.30
2019-01-13T02:43:59.464Z,28.70
2019-01-13T02:44:59.413Z,27.80
2019-01-13T02:45:59.364Z,28.80
2019-01-13T02:46:59.321Z,30.00
2019-01-13T02:47:59.301Z,31.50
2019-01-13T02:48:59.258Z,30.50
2019-01-13T02:49:59.197Z,33.20
2019-01-13T02:50:59.158Z,34.60
2019-01-13T02:51:59.100Z,35.50
2019-01-13T02:52:59.109Z,37.30
2019-01-13T02:53:59.016Z,39.00
2019-01-13T02:54:58.985Z,40.80
2019-01-13T02:55:58.926Z,41.20
2019-01-13T02:56:58.912Z,41.30
2019-01-13T02:57:58.870Z,42.50
2019-01-13T02:58:58.806Z,44.30
2019-01-13T02:59:58.763Z,45.90
2019-01-13T03:00:58.725Z,47.00
2019-01-13T03:01:58.676Z,48.60
2019-01-13T03:02:58.645Z,49.00
2019-01-13T03:03:58.655Z,50.00
2019-01-13T03:04:58.577Z,49.20
2019-01-13T03:05:58.508Z,50.80
2019-01-13T03:06:58.456Z,49.50
2019-01-13T03:07:58.452Z,49.30
2019-01-13T03:08:58.380Z,48.60
2019-01-13T03:09:58.380Z,48.20
2019-01-13T03:10:58.272Z,49.00
2019-01-13T03:11:58.254Z,48.50
2019-01-13T03:12:58.190Z,49.30
2019-01-13T03:13:58.141Z,46.70
2019-01-13T03:14:58.155Z,46.10
2019-01-13T03:15:58.068Z,46.60
2019-01-13T03:16:58.045Z,45.50
2019-01-13T03:17:57.968Z,45.30
2019-01-13T03:18:57.951Z,45.40
2019-01-13T03:19:57.892Z,45.10
2019-01-13T03:20:57.881Z,44.50
2019-01-13T03:21:57.802Z,44.60
2019-01-13T03:22:57.746Z,44.70
2019-01-13T03:23:57.702Z,44.60
2019-01-13T03:24:57.684Z,46.30
2019-01-13T03:25:57.631Z,46.10
2019-01-13T03:26:57.616Z,46.20
2019-01-13T03:27:57.571Z,45.30
2019-01-13T03:28:57.505Z,46.50
2019-01-13T03:29:57.462Z,44.70
2019-01-13T03:31:10.708Z,43.90
2019-01-13T03:31:57.374Z,45.30
2019-01-13T03:32:57.333Z,44.20
2019-01-13T03:33:57.284Z,45.20
2019-01-13T03:34:57.238Z,45.10
2019-01-13T03:35:57.249Z,43.90
2019-01-13T03:36:57.161Z,44.80
2019-01-13T03:37:57.117Z,44.40
2019-01-13T03:38:57.062Z,42.30
2019-01-13T03:39:57.032Z,43.10
2019-01-13T03:40:56.972Z,42.20
2019-01-13T03:41:56.959Z,41.60
2019-01-13T03:42:56.904Z,41.20
2019-01-13T03:43:56.890Z,41.40
2019-01-13T03:44:56.802Z,41.20
2019-01-13T03:45:56.764Z,41.20
2019-01-13T03:46:56.715Z,37.70
2019-01-13T03:47:56.694Z,37.80
2019-01-13T03:48:56.629Z,37.00
2019-01-13T03:49:56.603Z,37.50
2019-01-13T03:50:56.850Z,36.70
2019-01-13T03:51:56.510Z,35.20
2019-01-13T03:52:56.468Z,36.60
2019-01-13T03:53:56.402Z,35.50
2019-01-13T03:54:56.380Z,34.80
2019-01-13T03:55:56.320Z,33.30
2019-01-13T03:56:56.272Z,34.70
2019-01-13T03:57:56.254Z,34.60
2019-01-13T03:58:56.205Z,33.70
2019-01-13T03:59:56.163Z,33.70
2019-01-13T04:00:56.108Z,33.10
2019-01-13T04:01:56.082Z,33.30
2019-01-13T04:02:56.002Z,33.00
2019-01-13T04:03:55.980Z,33.30
2019-01-13T04:04:55.923Z,33.40
2019-01-13T04:05:55.876Z,34.80
2019-01-13T04:06:55.873Z,35.00
2019-01-13T04:07:55.816Z,34.60
2019-01-13T04:08:55.758Z,34.00
2019-01-13T04:09:55.701Z,33.30
2019-01-13T04:10:55.704Z,34.50
2019-01-13T04:11:55.631Z,35.10
2019-01-13T04:12:55.561Z,35.00
2019-01-13T04:13:55.519Z,34.90
2019-01-13T04:14:55.479Z,35.80
2019-01-13T04:15:55.462Z,35.40
2019-01-13T04:16:55.397Z,35.50
2019-01-13T04:17:55.370Z,34.70
2019-01-13T04:18:55.319Z,34.80
2019-01-13T04:19:55.290Z,35.50
2019-01-13T04:20:55.223Z,35.50
2019-01-13T04:21:55.173Z,36.20
2019-01-13T04:22:55.129Z,37.70
2019-01-13T04:23:55.091Z,37.60
2019-01-13T04:24:55.081Z,37.50
2019-01-13T04:25:55.037Z,37.00
2019-01-13T04:26:54.953Z,36.60
2019-01-13T04:27:54.919Z,36.30
2019-01-13T04:28:54.879Z,35.70
2019-01-13T04:29:54.876Z,35.10
2019-01-13T04:30:54.796Z,35.10
2019-01-13T04:31:54.742Z,35.70
2019-01-13T04:32:54.693Z,36.30
2019-01-13T04:33:54.655Z,36.40
2019-01-13T04:34:54.637Z,36.60
2019-01-13T04:35:54.564Z,36.20
2019-01-13T04:36:54.523Z,33.90
2019-01-13T04:37:54.487Z,35.20
2019-01-13T04:38:54.440Z,34.70
2019-01-13T04:39:54.413Z,35.20
2019-01-13T04:40:54.381Z,33.90
2019-01-13T04:41:54.311Z,33.30
2019-01-13T04:42:54.269Z,33.30
2019-01-13T04:43:54.222Z,32.00
2019-01-13T04:44:54.177Z,31.20
2019-01-13T04:45:54.126Z,29.20
2019-01-13T04:46:54.117Z,31.30
2019-01-13T04:47:54.066Z,30.60
2019-01-13T04:48:54.001Z,32.30
2019-01-13T04:49:53.963Z,31.80
2019-01-13T04:50:53.915Z,32.00
2019-01-13T04:51:53.875Z,32.40
2019-01-13T04:52:53.853Z,32.90
2019-01-13T04:53:53.779Z,31.50
2019-01-13T04:54:53.737Z,32.30
2019-01-13T04:55:53.689Z,31.20
2019-01-13T04:56:53.652Z,30.50
2019-01-13T04:57:53.612Z,29.80
2019-01-13T04:58:53.591Z,28.50
2019-01-13T04:59:53.515Z,30.10
2019-01-13T05:00:53.492Z,30.40
2019-01-13T05:01:53.433Z,28.70
2019-01-13T05:02:53.395Z,28.80
2019-01-13T05:03:53.377Z,29.70
2019-01-13T05:04:53.298Z,29.60
2019-01-13T05:05:53.263Z,29.70
2019-01-13T05:06:53.226Z,27.30
2019-01-13T05:07:53.178Z,29.40
2019-01-13T05:08:53.173Z,30.60
2019-01-13T05:09:53.090Z,30.20
2019-01-13T05:10:53.059Z,29.90
2019-01-13T05:11:53.013Z,29.50
2019-01-13T05:12:52.976Z,27.70
2019-01-13T05:13:52.905Z,27.20
2019-01-13T05:14:52.901Z,26.60
2019-01-13T05:15:52.838Z,26.30
2019-01-13T05:16:52.778Z,26.20
2019-01-13T05:17:52.744Z,24.60
2019-01-13T05:18:52.722Z,23.60
2019-01-13T05:19:52.647Z,23.40
2019-01-13T05:20:52.621Z,22.90
2019-01-13T05:21:52.564Z,22.40
2019-01-13T05:22:52.540Z,22.60
2019-01-13T05:23:52.512Z,22.50
2019-01-13T05:24:52.428Z,22.20
2019-01-13T05:25:52.389Z,21.60
2019-01-13T05:26:52.345Z,21.80
2019-01-13T05:27:52.306Z,20.90
2019-01-13T05:28:52.296Z,21.30
2019-01-13T05:29:52.220Z,21.40
2019-01-13T05:30:52.192Z,22.50
2019-01-13T05:31:52.131Z,22.50
2019-01-13T05:32:52.090Z,22.60
2019-01-13T05:33:52.045Z,22.40
2019-01-13T05:34:52.031Z,21.30
2019-01-13T05:35:51.979Z,21.60
2019-01-13T05:36:51.905Z,20.50
2019-01-13T05:37:51.862Z,21.00
2019-01-13T05:38:51.832Z,20.70
2019-01-13T05:39:51.792Z,21.30
2019-01-13T05:40:51.767Z,21.50
2019-01-13T05:41:51.688Z,22.30
2019-01-13T05:42:51.669Z,22.20
2019-01-13T05:43:51.603Z,22.40
2019-01-13T05:44:51.566Z,21.30
2019-01-13T05:45:51.523Z,22.70
2019-01-13T05:46:51.509Z,21.90
2019-01-13T05:47:51.437Z,22.40
2019-01-13T05:48:51.393Z,23.20
2019-01-13T05:49:51.348Z,23.60
2019-01-13T05:50:51.319Z,23.00
2019-01-13T05:51:51.274Z,22.30
2019-01-13T05:52:51.237Z,23.30
2019-01-13T05:53:51.188Z,23.40
2019-01-13T05:54:51.126Z,23.90
2019-01-13T05:55:51.112Z,23.70
2019-01-13T05:56:51.043Z,24.10
2019-01-13T05:57:51.029Z,23.40
2019-01-13T05:58:50.961Z,23.90
2019-01-13T05:59:50.922Z,24.50
2019-01-13T06:00:50.869Z,25.40
2019-01-13T06:01:50.821Z,24.90
2019-01-13T06:02:50.786Z,25.40
2019-01-13T06:03:50.768Z,25.70
2019-01-13T06:04:50.697Z,24.60
2019-01-13T06:05:50.686Z,24.90
2019-01-13T06:06:50.615Z,25.50
2019-01-13T06:07:50.564Z,25.10
2019-01-13T06:08:50.559Z,25.60
2019-01-13T06:09:50.490Z,23.60
2019-01-13T06:10:50.441Z,23.90
2019-01-13T06:11:50.415Z,24.90
2019-01-13T06:12:50.370Z,24.70
2019-01-13T06:13:50.304Z,24.60
2019-01-13T06:14:50.284Z,24.30
2019-01-13T06:15:50.241Z,23.30
2019-01-13T06:16:50.203Z,22.90
2019-01-13T06:17:50.142Z,22.80
2019-01-13T06:18:50.086Z,22.10
2019-01-13T06:19:50.043Z,22.30
2019-01-13T06:20:50.014Z,22.40
2019-01-13T06:21:49.987Z,21.70
2019-01-13T06:22:49.919Z,21.70
2019-01-13T06:23:49.867Z,20.30
2019-01-13T06:24:49.829Z,20.60
2019-01-13T06:25:49.785Z,21.60
2019-01-13T06:26:49.764Z,22.00
2019-01-13T06:27:49.691Z,22.70
2019-01-13T06:28:49.652Z,22.30
2019-01-13T06:29:49.605Z,22.70
2019-01-13T06:30:49.570Z,22.20
2019-01-13T06:31:56.076Z,21.10
2019-01-13T06:32:49.476Z,21.30
2019-01-13T06:33:49.426Z,20.30
2019-01-13T06:34:49.402Z,21.00
2019-01-13T06:35:49.350Z,20.40
2019-01-13T06:36:49.323Z,19.40
2019-01-13T06:37:49.269Z,19.80
2019-01-13T06:38:49.213Z,20.60
2019-01-13T06:39:49.172Z,20.30
2019-01-13T06:40:49.168Z,20.80
2019-01-13T06:41:49.084Z,20.30
2019-01-13T06:42:49.051Z,20.30
2019-01-13T06:43:49.004Z,20.00
2019-01-13T06:44:48.961Z,19.30
2019-01-13T06:45:48.917Z,19.20
2019-01-13T06:46:48.900Z,19.60
2019-01-13T06:47:48.823Z,20.20
2019-01-13T06:48:48.803Z,20.90
2019-01-13T06:49:48.744Z,20.60
2019-01-13T06:50:48.711Z,20.90
2019-01-13T06:51:48.676Z,19.10
2019-01-13T06:52:48.615Z,18.20
2019-01-13T06:53:48.578Z,18.50
2019-01-13T06:54:48.529Z,18.20
2019-01-13T06:55:48.482Z,17.40
2019-01-13T06:56:48.428Z,17.40
2019-01-13T06:57:48.409Z,17.20
2019-01-13T06:58:48.341Z,17.40
2019-01-13T06:59:48.298Z,17.60
2019-01-13T07:00:48.262Z,14.80
2019-01-13T07:01:48.224Z,15.40
2019-01-13T07:02:48.176Z,15.70
2019-01-13T07:03:48.179Z,14.90
2019-01-13T07:04:48.085Z,14.80
2019-01-13T07:05:48.046Z,13.60
2019-01-13T07:06:48.005Z,14.60
2019-01-13T07:07:47.984Z,15.00
2019-01-13T07:08:47.910Z,14.60
2019-01-13T07:09:47.864Z,15.20
2019-01-13T07:10:47.831Z,15.70
2019-01-13T07:11:47.780Z,15.00
2019-01-13T07:12:47.767Z,14.30
2019-01-13T07:13:47.696Z,14.40
2019-01-13T07:14:47.657Z,14.40
2019-01-13T07:15:47.654Z,13.70
2019-01-13T07:16:47.580Z,14.10
2019-01-13T07:17:47.516Z,13.90
2019-01-13T07:18:47.502Z,14.20
2019-01-13T07:19:47.467Z,14.10
2019-01-13T07:20:47.392Z,13.30
2019-01-13T07:21:47.349Z,13.00
2019-01-13T07:22:47.310Z,12.50
2019-01-13T07:23:47.260Z,12.10
2019-01-13T07:24:47.220Z,12.30
2019-01-13T07:25:47.223Z,12.30
2019-01-13T07:26:47.144Z,11.60
2019-01-13T07:27:47.106Z,11.60
2019-01-13T07:28:47.077Z,11.40
2019-01-13T07:29:47.001Z,11.60
2019-01-13T07:30:46.959Z,10.40
2019-01-13T07:31:46.919Z,10.90
2019-01-13T07:32:46.874Z,10.50
2019-01-13T07:33:46.836Z,10.30
2019-01-13T07:34:46.829Z,10.10
2019-01-13T07:35:46.748Z,10.20
2019-01-13T07:36:46.713Z,9.90
2019-01-13T07:37:46.660Z,10.30
2019-01-13T07:38:46.614Z,10.60
2019-01-13T07:39:46.612Z,11.60
2019-01-13T07:40:46.528Z,11.10
2019-01-13T07:41:46.508Z,10.90
2019-01-13T07:42:46.443Z,10.80
2019-01-13T07:43:46.399Z,11.40
2019-01-13T07:44:46.358Z,11.70
2019-01-13T07:45:46.350Z,11.60
2019-01-13T07:46:46.267Z,12.00
2019-01-13T07:47:46.229Z,12.80
2019-01-13T07:48:46.179Z,12.40
2019-01-13T07:49:46.136Z,12.90
2019-01-13T07:50:46.113Z,13.20
2019-01-13T07:51:46.043Z,12.80
2019-01-13T07:52:46.013Z,13.10
2019-01-13T07:53:45.961Z,13.00
2019-01-13T07:54:45.909Z,12.70
2019-01-13T07:55:45.907Z,12.30
2019-01-13T07:56:45.834Z,12.70
2019-01-13T07:57:45.795Z,12.60
2019-01-13T07:58:45.758Z,13.00
2019-01-13T07:59:45.711Z,13.50
2019-01-13T08:00:45.677Z,13.70
2019-01-13T08:01:45.613Z,13.00
2019-01-13T08:02:45.576Z,13.60
2019-01-13T08:03:45.547Z,13.40
2019-01-13T08:04:45.487Z,14.00
2019-01-13T08:05:45.473Z,13.30
2019-01-13T08:06:45.407Z,13.50
2019-01-13T08:07:45.384Z,14.30
2019-01-13T08:08:45.307Z,14.20
2019-01-13T08:09:45.268Z,13.60
2019-01-13T08:10:45.227Z,13.50
2019-01-13T08:11:45.189Z,14.30
2019-01-13T08:12:45.131Z,13.90
2019-01-13T08:13:45.126Z,13.90
2019-01-13T08:14:45.063Z,14.40
2019-01-13T08:15:45.056Z,14.50
2019-01-13T08:16:44.979Z,14.90
2019-01-13T08:17:44.986Z,15.00
2019-01-13T08:18:44.888Z,15.40
2019-01-13T08:19:44.843Z,15.10
2019-01-13T08:20:44.830Z,15.10
2019-01-13T08:21:44.782Z,15.50
2019-01-13T08:22:44.705Z,15.70
2019-01-13T08:23:44.686Z,15.10
2019-01-13T08:24:44.625Z,15.90
2019-01-13T08:25:44.593Z,16.00
2019-01-13T08:26:44.565Z,15.70
2019-01-13T08:27:44.493Z,16.50
2019-01-13T08:28:44.506Z,16.10
2019-01-13T08:29:44.409Z,16.00
2019-01-13T08:30:44.364Z,17.10
2019-01-13T08:31:44.364Z,16.40
2019-01-13T08:32:44.267Z,16.50
2019-01-13T08:33:44.251Z,16.40
2019-01-13T08:34:44.180Z,16.50
2019-01-13T08:35:44.143Z,16.70
2019-01-13T08:36:44.117Z,17.20
2019-01-13T08:37:44.067Z,16.30
2019-01-13T08:38:44.030Z,16.90
2019-01-13T08:39:44.015Z,17.00
2019-01-13T08:40:43.926Z,16.70
2019-01-13T08:41:43.911Z,16.90
2019-01-13T08:42:43.907Z,16.60
2019-01-13T08:43:43.829Z,16.00
2019-01-13T08:44:43.781Z,15.80
2019-01-13T08:45:50.100Z,15.60
2019-01-13T08:46:43.699Z,16.10
2019-01-13T08:47:43.673Z,15.70
2019-01-13T08:48:43.595Z,15.20
2019-01-13T08:49:43.561Z,15.50
2019-01-13T08:50:43.512Z,15.00
2019-01-13T08:51:43.520Z,15.20
2019-01-13T08:52:43.508Z,15.40
2019-01-13T08:53:43.408Z,15.50
2019-01-13T08:54:43.335Z,14.90
2019-01-13T08:55:43.293Z,15.90
2019-01-13T08:56:43.338Z,15.20
2019-01-13T08:57:43.216Z,15.10
2019-01-13T08:58:43.223Z,14.60
2019-01-13T08:59:43.121Z,15.20
2019-01-13T09:00:43.072Z,15.50
2019-01-13T09:01:43.040Z,15.40
2019-01-13T09:02:43.018Z,15.10
2019-01-13T09:03:42.993Z,15.80
2019-01-13T09:04:42.908Z,15.20
2019-01-13T09:05:42.952Z,16.00
2019-01-13T09:06:42.850Z,15.10
2019-01-13T09:07:42.783Z,15.70
2019-01-13T09:08:42.732Z,16.40
2019-01-13T09:09:42.741Z,15.80
2019-01-13T09:10:42.659Z,16.80
2019-01-13T09:11:42.632Z,16.00
2019-01-13T09:12:42.555Z,16.50
2019-01-13T09:13:42.527Z,16.60
2019-01-13T09:14:42.510Z,16.80
2019-01-13T09:15:42.449Z,16.40
2019-01-13T09:16:42.407Z,17.30
2019-01-13T09:17:42.364Z,16.70
2019-01-13T09:18:42.310Z,16.90
2019-01-13T09:19:42.280Z,17.70
2019-01-13T09:20:42.236Z,16.90
2019-01-13T09:21:42.191Z,16.60
2019-01-13T09:22:42.136Z,17.70
2019-01-13T09:23:42.086Z,18.70
2019-01-13T09:24:42.067Z,18.30
2019-01-13T09:25:42.014Z,18.60
2019-01-13T09:26:41.961Z,18.50
2019-01-13T09:27:41.916Z,18.90
2019-01-13T09:28:41.895Z,18.70
2019-01-13T09:29:42.493Z,19.30
2019-01-13T09:30:41.794Z,19.50
2019-01-13T09:31:41.734Z,19.90
2019-01-13T09:32:41.715Z,19.90
2019-01-13T09:33:41.658Z,20.80
2019-01-13T09:34:41.621Z,20.80
2019-01-13T09:35:41.617Z,21.80
2019-01-13T09:36:41.522Z,21.80
2019-01-13T09:37:41.478Z,22.10
2019-01-13T09:38:41.464Z,22.60
2019-01-13T09:39:41.408Z,22.20
2019-01-13T09:40:41.359Z,22.90
2019-01-13T09:41:41.350Z,22.90
2019-01-13T09:42:41.295Z,23.10
2019-01-13T09:43:41.225Z,23.80
2019-01-13T09:44:41.206Z,24.10
2019-01-13T09:45:41.178Z,23.60
2019-01-13T09:46:41.125Z,24.50
2019-01-13T09:47:41.059Z,23.50
2019-01-13T09:48:41.025Z,24.20
2019-01-13T09:49:40.963Z,23.60
2019-01-13T09:50:40.918Z,23.60
2019-01-13T09:51:40.882Z,23.50
2019-01-13T09:52:40.886Z,24.10
2019-01-13T09:53:40.792Z,23.50
2019-01-13T09:54:40.781Z,24.20
2019-01-13T09:55:40.742Z,23.40
2019-01-13T09:56:40.697Z,23.90
2019-01-13T09:57:40.657Z,24.70
2019-01-13T09:58:40.596Z,24.50
2019-01-13T09:59:40.536Z,25.40
2019-01-13T10:00:40.502Z,25.20
2019-01-13T10:01:40.470Z,25.20
2019-01-13T10:02:46.431Z,25.70
2019-01-13T10:03:40.372Z,26.00
2019-01-13T10:04:40.335Z,25.60
2019-01-13T10:05:40.295Z,25.70
2019-01-13T10:06:40.241Z,25.50
2019-01-13T10:07:40.238Z,24.40
2019-01-13T10:08:40.248Z,25.00
2019-01-13T10:09:40.099Z,25.60
2019-01-13T10:10:40.093Z,25.20
2019-01-13T10:11:40.016Z,24.80
2019-01-13T10:12:39.995Z,24.00
2019-01-13T10:13:39.968Z,23.60
2019-01-13T10:14:39.919Z,23.40
2019-01-13T10:15:39.867Z,23.30
2019-01-13T10:16:39.814Z,23.60
2019-01-13T10:17:39.789Z,23.50
2019-01-13T10:18:39.741Z,22.80
2019-01-13T10:19:39.731Z,22.10
2019-01-13T10:20:39.667Z,22.50
2019-01-13T10:21:39.620Z,22.10
2019-01-13T10:22:39.537Z,22.20
2019-01-13T10:23:39.501Z,22.90
2019-01-13T10:24:39.472Z,22.90
2019-01-13T10:25:39.464Z,21.50
2019-01-13T10:26:39.395Z,21.80
2019-01-13T10:27:39.346Z,21.40
2019-01-13T10:28:48.516Z,22.30
2019-01-13T10:29:48.480Z,21.40
2019-01-13T10:30:48.033Z,21.90
2019-01-13T10:31:39.163Z,20.80
2019-01-13T10:32:39.122Z,21.30
2019-01-13T10:33:49.776Z,21.20
2019-01-13T10:34:39.035Z,21.30
2019-01-13T10:35:38.985Z,21.20
2019-01-13T10:36:38.976Z,20.10
2019-01-13T10:37:38.936Z,20.30
2019-01-13T10:38:38.934Z,20.70
2019-01-13T10:39:38.838Z,21.10
2019-01-13T10:40:38.847Z,21.60
2019-01-13T10:41:38.768Z,21.00
2019-01-13T10:42:38.710Z,21.10
2019-01-13T10:43:38.654Z,21.80
2019-01-13T10:44:38.647Z,22.00
2019-01-13T10:45:38.626Z,20.90
2019-01-13T10:46:38.539Z,21.30
2019-01-13T10:47:38.478Z,20.90
2019-01-13T10:48:38.464Z,22.70
2019-01-13T10:49:38.384Z,21.60
2019-01-13T10:50:38.378Z,21.70
2019-01-13T10:51:38.328Z,22.50
2019-01-13T10:52:38.289Z,21.90
2019-01-13T10:53:38.251Z,21.70
2019-01-13T10:54:38.166Z,21.00
2019-01-13T10:55:38.192Z,20.90
2019-01-13T10:56:38.115Z,21.30
2019-01-13T10:57:38.061Z,21.40
2019-01-13T10:58:38.052Z,20.90
2019-01-13T10:59:37.969Z,20.70
2019-01-13T11:00:37.949Z,19.80
2019-01-13T11:01:37.884Z,19.10
2019-01-13T11:02:37.880Z,20.60
2019-01-13T11:03:38.052Z,19.20
2019-01-13T11:04:37.767Z,20.20
2019-01-13T11:05:37.759Z,19.70
2019-01-13T11:06:37.657Z,19.10
2019-01-13T11:07:37.629Z,20.30
2019-01-13T11:08:37.814Z,19.70
2019-01-13T11:09:37.534Z,19.70
2019-01-13T11:10:37.493Z,20.80
2019-01-13T11:11:37.468Z,21.40
2019-01-13T11:12:37.407Z,20.30
2019-01-13T11:13:38.801Z,20.20
2019-01-13T11:14:37.313Z,20.10
2019-01-13T11:15:37.313Z,20.30
2019-01-13T11:16:37.535Z,20.00
2019-01-13T11:17:37.240Z,20.00
2019-01-13T11:18:37.382Z,19.40
2019-01-13T11:19:37.100Z,20.10
2019-01-13T11:20:37.089Z,18.60
2019-01-13T11:21:37.043Z,18.70
2019-01-13T11:22:37.026Z,16.10
2019-01-13T11:23:36.975Z,17.20
2019-01-13T11:24:36.910Z,17.20
2019-01-13T11:25:36.863Z,16.70
2019-01-13T11:26:37.400Z,17.10
2019-01-13T11:27:36.839Z,17.20
2019-01-13T11:28:36.728Z,17.30
2019-01-13T11:29:36.682Z,17.50
2019-01-13T11:30:36.663Z,16.40
2019-01-13T11:31:36.611Z,15.90
2019-01-13T11:32:36.578Z,15.60
2019-01-13T11:33:36.521Z,15.30
2019-01-13T11:34:36.481Z,15.90
2019-01-13T11:35:36.431Z,15.20
2019-01-13T11:36:36.393Z,14.20
2019-01-13T11:37:36.338Z,14.40
2019-01-13T11:38:36.330Z,14.00
2019-01-13T11:39:36.237Z,14.20
2019-01-13T11:40:36.247Z,14.80
2019-01-13T11:41:36.198Z,13.70
2019-01-13T11:42:36.455Z,13.90
2019-01-13T11:43:36.217Z,13.30
2019-01-13T11:44:36.053Z,13.60
2019-01-13T11:45:36.035Z,12.10
2019-01-13T11:46:35.941Z,13.50
2019-01-13T11:47:35.937Z,14.20
2019-01-13T11:48:35.925Z,13.30
2019-01-13T11:49:35.850Z,12.20
2019-01-13T11:50:36.405Z,12.80
2019-01-13T11:51:35.733Z,11.80
2019-01-13T11:52:35.754Z,12.50
2019-01-13T11:53:35.706Z,12.70
2019-01-13T11:54:35.745Z,12.10
2019-01-13T11:55:35.618Z,12.20
2019-01-13T11:56:35.566Z,11.80
2019-01-13T11:57:35.510Z,10.00
2019-01-13T11:58:35.553Z,10.10
2019-01-13T11:59:35.420Z,10.00
2019-01-13T12:00:35.357Z,10.70
2019-01-13T12:01:35.321Z,10.20
2019-01-13T12:02:35.279Z,10.40
2019-01-13T12:03:35.224Z,9.80
2019-01-13T12:04:35.198Z,9.80
2019-01-13T12:05:35.166Z,10.20
2019-01-13T12:06:35.160Z,9.90
2019-01-13T12:07:35.077Z,10.30
2019-01-13T12:08:35.009Z,10.50
2019-01-13T12:09:35.008Z,10.40
2019-01-13T12:10:34.950Z,10.30
2019-01-13T12:11:34.939Z,10.30
2019-01-13T12:12:34.867Z,10.30
2019-01-13T12:13:34.805Z,10.10
2019-01-13T12:14:34.769Z,10.10
2019-01-13T12:15:34.733Z,9.60
2019-01-13T12:16:34.657Z,9.10
2019-01-13T12:17:34.625Z,9.00
2019-01-13T12:18:40.531Z,9.80
2019-01-13T12:19:34.571Z,9.80
2019-01-13T12:20:34.517Z,10.00
2019-01-13T12:21:34.504Z,9.80
2019-01-13T12:22:34.394Z,10.10
2019-01-13T12:23:34.369Z,10.10
2019-01-13T12:24:34.360Z,9.50
2019-01-13T12:25:34.287Z,10.00
2019-01-13T12:26:34.487Z,10.00
2019-01-13T12:27:34.223Z,10.30
2019-01-13T12:28:34.153Z,10.10
2019-01-13T12:29:34.129Z,10.20
2019-01-13T12:30:34.059Z,9.80
2019-01-13T12:31:34.034Z,10.50
2019-01-13T12:32:33.971Z,10.30
2019-01-13T12:33:33.942Z,9.70
2019-01-13T12:34:33.889Z,9.70
2019-01-13T12:35:33.856Z,10.20
2019-01-13T12:36:33.798Z,10.10
2019-01-13T12:37:33.809Z,10.70
2019-01-13T12:38:33.742Z,10.30
2019-01-13T12:39:33.950Z,11.00
2019-01-13T12:40:33.644Z,10.60
2019-01-13T12:41:33.627Z,10.50
2019-01-13T12:42:33.570Z,10.40
2019-01-13T12:43:33.509Z,10.50
2019-01-13T12:44:33.540Z,10.20
2019-01-13T12:45:33.501Z,9.90
2019-01-13T12:46:33.395Z,9.60
2019-01-13T12:47:33.431Z,9.50
2019-01-13T12:48:33.285Z,9.10
2019-01-13T12:49:33.287Z,9.70
2019-01-13T12:50:33.278Z,9.30
2019-01-13T12:51:33.217Z,9.30
2019-01-13T12:52:33.778Z,9.20